KDRA

Desert Rock Airport

Mercury, Nevada, USA
METAR KDRA 141656Z AUTO 01006KT 10SM CLR 06/M10 A3033 RMK AO2 SLP262 T00611100 $
Observed Flight Rules
Dec-14 @ 16:56 UTC (an hour ago) Visual Flight Rules
Wind Visibility Clouds
10° at 6 knots 10 miles
  • Clear skies
Temperatures Readings
Current 6°C / 43°F
Dewpoint -10°C / 14°F
Humidity 31%
Altimeter 30.33" Hg
Pressure 1026.2 hPa
Elevation 1006
METAR KDRA 141656Z AUTO 01006KT 10SM CLR 06/M10 A3033 RMK AO2 SLP262 T00611100 $
Observed Flight Rules
Dec-14 @ 16:56 UTC
(an hour ago)
VFR
Wind Visibility
10° at 6 knots 10 miles
Clouds
  • Clear skies
Temperature Dewpoint
6°C / 43°F -10°C / 14°F
Humidity Altimeter Pressure
31% 30.33" Hg 1026.2 hPa